Time;durP1;ratioP1;P1;durP2;ratioP2;P2;SDS_P1;SDS_P2;PMS_P1;PMS_P2;Temp;Humidity;BMP_temperature;BMP_pressure;BME280_temperature;BME280_humidity;BME280_pressure;Samples;Min_cycle;Max_cycle;Signal;HPM_P1;HPM_P2
2023/07/03 00:00:53;;;;;;;6.30;3.70;;;;;;;;;;83492;275;3031254;-40
2023/07/03 00:03:51;;;;;;;5.50;3.80;;;;;;;;;;83472;271;3028622;-40
2023/07/03 00:06:29;;;;;;;6.20;4.00;;;;;;;;;;83523;268;3027752;-42
2023/07/03 00:09:04;;;;;;;5.60;3.70;;;;;;;;;;83497;275;3031628;-41
2023/07/03 00:11:40;;;;;;;5.20;3.60;;;;;;;;;;84219;271;3011311;-41
2023/07/03 00:14:16;;;;;;;6.10;4.10;;;;;;;;;;83497;275;3031755;-40
2023/07/03 00:16:52;;;;;;;6.80;4.00;;;;;;;;;;83478;275;3028237;-40
2023/07/03 00:19:32;;;;;;;6.70;3.90;;;;;;;;;;83494;275;3027797;-41
2023/07/03 00:22:08;;;;;;;5.60;4.00;;;;;;;;;;83527;275;3031941;-40
2023/07/03 00:24:43;;;;;;;7.10;4.30;;;;;;;;;;83483;264;3032237;-40
2023/07/03 00:27:19;;;;;;;6.70;4.40;;;;;;;;;;84225;275;3011044;-40
2023/07/03 00:29:55;;;;;;;6.50;4.10;;;;;;;;;;84205;275;3011343;-40
2023/07/03 00:32:31;;;;;;;5.50;3.80;;;;;;;;;;84253;273;3010902;-40
2023/07/03 00:35:08;;;;;;;6.40;4.00;;;;;;;;;;84188;271;3011333;-39
2023/07/03 00:37:43;;;;;;;6.10;3.90;;;;;;;;;;83475;275;3028370;-40
2023/07/03 00:40:19;;;;;;;5.80;4.10;;;;;;;;;;83474;275;3028753;-40
2023/07/03 00:42:55;;;;;;;5.80;4.10;;;;;;;;;;84236;271;3011427;-41
2023/07/03 00:45:31;;;;;;;6.50;4.00;;;;;;;;;;84225;275;3010840;-40
2023/07/03 00:48:08;;;;;;;6.40;4.10;;;;;;;;;;84236;275;3010971;-39
2023/07/03 00:50:43;;;;;;;5.90;4.10;;;;;;;;;;83480;275;3031880;-40
2023/07/03 00:53:21;;;;;;;6.00;4.00;;;;;;;;;;84235;275;3010957;-40
2023/07/03 00:55:56;;;;;;;6.20;4.30;;;;;;;;;;83476;275;3039111;-39
2023/07/03 00:58:32;;;;;;;6.00;3.90;;;;;;;;;;84265;275;3010888;-40
2023/07/03 01:01:16;;;;;;;6.10;4.00;;;;;;;;;;84250;275;3011319;-40
2023/07/03 01:04:01;;;;;;;6.10;4.10;;;;;;;;;;83443;275;3028017;-40
2023/07/03 01:06:46;;;;;;;5.70;4.10;;;;;;;;;;83485;271;3027441;-41
2023/07/03 01:09:34;;;;;;;6.10;4.10;;;;;;;;;;83489;268;3030889;-40
2023/07/03 01:12:13;;;;;;;5.80;4.10;;;;;;;;;;83507;275;3031531;-40
2023/07/03 01:14:49;;;;;;;6.10;4.30;;;;;;;;;;83496;275;3028883;-40
2023/07/03 01:17:27;;;;;;;6.00;4.50;;;;;;;;;;83514;275;3028071;-40
2023/07/03 01:20:05;;;;;;;5.70;4.10;;;;;;;;;;83502;275;3031164;-40
2023/07/03 01:22:47;;;;;;;6.30;4.30;;;;;;;;;;83493;275;3031828;-40
2023/07/03 01:25:27;;;;;;;5.80;4.10;;;;;;;;;;83484;275;3027949;-39
2023/07/03 01:28:04;;;;;;;6.50;4.20;;;;;;;;;;83508;271;3027584;-39
2023/07/03 01:30:41;;;;;;;6.70;4.50;;;;;;;;;;83501;275;3030322;-39
2023/07/03 01:33:25;;;;;;;6.50;4.50;;;;;;;;;;83504;275;3032399;-39
2023/07/03 01:36:01;;;;;;;6.00;3.70;;;;;;;;;;83493;275;3028963;-40
2023/07/03 01:38:38;;;;;;;6.40;4.70;;;;;;;;;;83499;275;3027387;-39
2023/07/03 01:41:16;;;;;;;6.90;4.30;;;;;;;;;;83472;271;3030503;-40
2023/07/03 01:43:51;;;;;;;5.80;4.20;;;;;;;;;;83489;268;3031545;-39
2023/07/03 01:46:27;;;;;;;6.40;4.40;;;;;;;;;;84220;275;3011362;-40
2023/07/03 01:49:03;;;;;;;6.00;4.40;;;;;;;;;;83488;275;3028657;-40
2023/07/03 01:51:51;;;;;;;7.40;4.40;;;;;;;;;;83480;275;3027771;-39
2023/07/03 01:54:32;;;;;;;5.60;4.20;;;;;;;;;;83505;268;3031220;-40
2023/07/03 01:57:11;;;;;;;5.90;4.20;;;;;;;;;;83442;275;3037254;-40
2023/07/03 01:59:47;;;;;;;6.50;4.70;;;;;;;;;;83494;275;3028179;-40
2023/07/03 02:02:28;;;;;;;6.20;4.60;;;;;;;;;;83489;275;3027274;-40
2023/07/03 02:05:09;;;;;;;6.80;4.80;;;;;;;;;;83471;275;3031752;-40
2023/07/03 02:07:45;;;;;;;6.80;4.60;;;;;;;;;;83519;271;3039912;-40
2023/07/03 02:10:21;;;;;;;6.90;4.70;;;;;;;;;;83502;275;3028455;-41
2023/07/03 02:12:56;;;;;;;6.20;4.10;;;;;;;;;;83499;275;3027387;-39
2023/07/03 02:15:32;;;;;;;6.20;4.60;;;;;;;;;;84221;271;3010879;-40
2023/07/03 02:18:17;;;;;;;6.50;4.70;;;;;;;;;;84226;271;3011210;-39
2023/07/03 02:20:53;;;;;;;6.50;4.60;;;;;;;;;;83502;275;3031109;-41
2023/07/03 02:23:29;;;;;;;6.10;4.50;;;;;;;;;;84251;268;3010946;-40
2023/07/03 02:26:05;;;;;;;7.20;4.60;;;;;;;;;;84216;271;3011271;-39
2023/07/03 02:28:41;;;;;;;6.70;4.30;;;;;;;;;;84243;275;3011321;-40
2023/07/03 02:31:19;;;;;;;6.30;4.90;;;;;;;;;;84249;271;3010997;-41
2023/07/03 02:33:55;;;;;;;6.20;4.80;;;;;;;;;;83489;275;3032937;-41
2023/07/03 02:36:36;;;;;;;6.50;4.50;;;;;;;;;;83507;275;3028247;-40
2023/07/03 02:39:11;;;;;;;6.70;4.80;;;;;;;;;;83482;275;3028040;-40
2023/07/03 02:41:47;;;;;;;7.00;4.60;;;;;;;;;;84255;275;3011394;-40
2023/07/03 02:44:23;;;;;;;6.40;4.50;;;;;;;;;;84231;275;3011004;-41
2023/07/03 02:46:59;;;;;;;6.70;4.70;;;;;;;;;;84241;271;3011005;-40
2023/07/03 02:49:35;;;;;;;7.30;4.80;;;;;;;;;;84240;271;3010996;-41
2023/07/03 02:52:12;;;;;;;7.10;4.70;;;;;;;;;;84250;271;3011352;-41
2023/07/03 02:54:47;;;;;;;6.70;5.00;;;;;;;;;;83490;271;3030590;-41
2023/07/03 02:57:23;;;;;;;6.50;4.60;;;;;;;;;;84189;277;3011051;-40
2023/07/03 03:00:02;;;;;;;6.80;4.80;;;;;;;;;;84273;271;3011206;-39
2023/07/03 03:02:39;;;;;;;6.90;5.10;;;;;;;;;;83494;264;3032772;-40
2023/07/03 03:05:14;;;;;;;6.40;4.60;;;;;;;;;;83510;271;3028306;-40
2023/07/03 03:07:50;;;;;;;6.80;4.80;;;;;;;;;;83475;271;3027643;-39
2023/07/03 03:10:26;;;;;;;7.20;4.70;;;;;;;;;;84245;275;3011114;-40
2023/07/03 03:13:02;;;;;;;6.90;5.10;;;;;;;;;;84247;275;3010923;-40
2023/07/03 03:15:42;;;;;;;6.30;4.70;;;;;;;;;;84169;277;3011033;-39
2023/07/03 03:18:17;;;;;;;7.20;5.00;;;;;;;;;;83493;275;3031438;-40
2023/07/03 03:20:53;;;;;;;8.20;5.10;;;;;;;;;;84245;276;3010993;-40
2023/07/03 03:23:31;;;;;;;7.30;5.10;;;;;;;;;;84230;273;3011068;-40
2023/07/03 03:26:07;;;;;;;7.50;4.90;;;;;;;;;;83496;275;3031609;-40
2023/07/03 03:28:43;;;;;;;7.80;4.90;;;;;;;;;;84237;268;3011484;-40
2023/07/03 03:31:18;;;;;;;7.20;4.80;;;;;;;;;;83515;271;3028980;-40
2023/07/03 03:33:54;;;;;;;6.70;4.70;;;;;;;;;;84266;275;3011016;-40
2023/07/03 03:36:37;;;;;;;6.50;4.80;;;;;;;;;;84222;275;3011199;-42
2023/07/03 03:39:12;;;;;;;6.80;5.00;;;;;;;;;;83488;275;3027895;-41
2023/07/03 03:41:49;;;;;;;7.50;4.90;;;;;;;;;;84278;275;3010879;-41
2023/07/03 03:44:24;;;;;;;6.90;5.10;;;;;;;;;;83505;275;3030658;-39
2023/07/03 03:46:59;;;;;;;6.90;5.20;;;;;;;;;;83505;268;3032576;-40
2023/07/03 03:49:35;;;;;;;7.20;5.10;;;;;;;;;;84226;268;3011049;-40
2023/07/03 03:52:12;;;;;;;7.10;5.20;;;;;;;;;;84230;275;3011017;-39
2023/07/03 03:54:49;;;;;;;6.90;5.20;;;;;;;;;;83486;271;3028036;-39
2023/07/03 03:57:24;;;;;;;6.90;5.00;;;;;;;;;;83486;271;3028577;-40
2023/07/03 04:00:00;;;;;;;7.60;5.10;;;;;;;;;;84233;275;3010963;-39
2023/07/03 04:02:39;;;;;;;6.80;4.80;;;;;;;;;;84239;275;3011291;-40
2023/07/03 04:05:14;;;;;;;7.40;4.90;;;;;;;;;;83500;269;3030324;-40
2023/07/03 04:07:51;;;;;;;6.90;4.90;;;;;;;;;;83474;280;3031731;-40
2023/07/03 04:10:27;;;;;;;7.20;4.90;;;;;;;;;;84239;280;3011009;-41
2023/07/03 04:13:03;;;;;;;7.30;5.30;;;;;;;;;;84248;275;3011098;-40
2023/07/03 04:15:51;;;;;;;6.80;5.20;;;;;;;;;;83492;267;3028525;-39
2023/07/03 04:18:29;;;;;;;7.20;5.10;;;;;;;;;;83478;271;3026878;-40
2023/07/03 04:21:04;;;;;;;8.20;5.30;;;;;;;;;;83506;275;3030372;-40
2023/07/03 04:23:41;;;;;;;7.40;5.20;;;;;;;;;;83505;271;3032384;-40
2023/07/03 04:26:22;;;;;;;6.90;5.20;;;;;;;;;;84266;271;3011203;-40
2023/07/03 04:28:58;;;;;;;7.70;5.30;;;;;;;;;;83494;271;3027632;-40
2023/07/03 04:31:33;;;;;;;7.00;4.90;;;;;;;;;;83478;275;3027233;-41
2023/07/03 04:34:08;;;;;;;7.80;5.00;;;;;;;;;;83506;275;3030336;-41
2023/07/03 04:36:45;;;;;;;7.50;5.60;;;;;;;;;;84242;272;3010968;-41
2023/07/03 04:39:23;;;;;;;6.80;5.30;;;;;;;;;;83495;268;3032227;-41
2023/07/03 04:42:00;;;;;;;8.80;4.90;;;;;;;;;;83517;271;3028501;-40
2023/07/03 04:44:35;;;;;;;6.80;5.20;;;;;;;;;;83480;275;3027808;-40
2023/07/03 04:47:15;;;;;;;7.30;4.90;;;;;;;;;;84248;271;3011250;-40
2023/07/03 04:49:55;;;;;;;8.40;5.40;;;;;;;;;;83002;275;3669218;-41
2023/07/03 04:52:30;;;;;;;7.10;5.20;;;;;;;;;;83497;268;3031404;-42
2023/07/03 04:55:09;;;;;;;6.90;4.90;;;;;;;;;;84257;275;3010914;-42
2023/07/03 04:57:43;;;;;;;7.20;5.40;;;;;;;;;;83523;275;3027828;-41
2023/07/03 05:00:21;;;;;;;7.50;5.30;;;;;;;;;;84249;275;3011233;-41
2023/07/03 05:03:02;;;;;;;7.20;5.30;;;;;;;;;;83499;275;3027244;-41
2023/07/03 05:05:38;;;;;;;7.00;5.20;;;;;;;;;;83499;271;3030523;-41
2023/07/03 05:08:13;;;;;;;7.80;5.30;;;;;;;;;;83499;268;3031765;-42
2023/07/03 05:10:49;;;;;;;7.10;5.40;;;;;;;;;;84234;271;3011389;-41
2023/07/03 05:13:24;;;;;;;7.20;5.40;;;;;;;;;;84245;264;3010981;-41
2023/07/03 05:16:02;;;;;;;7.10;5.30;;;;;;;;;;84245;271;3011183;-41
2023/07/03 05:18:41;;;;;;;7.10;5.20;;;;;;;;;;83532;275;3029591;-41
2023/07/03 05:21:15;;;;;;;7.30;5.30;;;;;;;;;;83476;273;3027255;-40
2023/07/03 05:23:51;;;;;;;7.70;5.40;;;;;;;;;;84262;275;3010979;-41
2023/07/03 05:26:27;;;;;;;7.30;5.40;;;;;;;;;;84243;268;3011003;-41
2023/07/03 05:29:03;;;;;;;8.40;5.20;;;;;;;;;;84264;268;3010855;-41
2023/07/03 05:31:39;;;;;;;7.00;5.20;;;;;;;;;;84237;268;3011191;-41
2023/07/03 05:34:15;;;;;;;7.30;5.10;;;;;;;;;;84224;275;3011015;-42
2023/07/03 05:36:51;;;;;;;7.50;5.00;;;;;;;;;;84245;275;3011010;-40
2023/07/03 05:39:27;;;;;;;7.40;4.80;;;;;;;;;;84245;275;3011278;-40
2023/07/03 05:42:06;;;;;;;7.40;5.20;;;;;;;;;;83511;280;3031911;-41
2023/07/03 05:44:41;;;;;;;6.90;5.20;;;;;;;;;;83502;275;3031365;-41
2023/07/03 05:47:19;;;;;;;7.40;5.00;;;;;;;;;;84262;273;3010918;-43
2023/07/03 05:49:55;;;;;;;7.70;5.10;;;;;;;;;;83487;276;3027811;-40
2023/07/03 05:52:33;;;;;;;6.80;4.80;;;;;;;;;;83485;271;3033707;-40
2023/07/03 05:55:10;;;;;;;7.60;4.40;;;;;;;;;;83517;272;3030470;-40
2023/07/03 05:57:45;;;;;;;8.60;5.20;;;;;;;;;;83474;275;3031418;-39
2023/07/03 06:00:27;;;;;;;7.60;5.20;;;;;;;;;;83494;275;3028942;-41
2023/07/03 06:03:02;;;;;;;7.40;4.80;;;;;;;;;;83486;275;3033838;-40
2023/07/03 06:05:39;;;;;;;7.20;5.00;;;;;;;;;;83491;275;3030643;-41
2023/07/03 06:08:13;;;;;;;7.20;4.80;;;;;;;;;;83481;271;3031104;-39
2023/07/03 06:10:49;;;;;;;7.30;4.60;;;;;;;;;;84227;264;3010968;-40
2023/07/03 06:13:24;;;;;;;7.20;4.60;;;;;;;;;;84234;271;3010911;-39
2023/07/03 06:16:01;;;;;;;7.00;4.60;;;;;;;;;;84227;275;3010993;-40
2023/07/03 06:18:36;;;;;;;7.20;4.70;;;;;;;;;;83483;275;3028084;-40
2023/07/03 06:21:14;;;;;;;7.50;4.80;;;;;;;;;;83498;275;3027008;-39
2023/07/03 06:23:49;;;;;;;6.40;4.40;;;;;;;;;;83522;275;3031111;-40
2023/07/03 06:26:25;;;;;;;8.40;4.70;;;;;;;;;;84240;275;3011015;-40
2023/07/03 06:29:02;;;;;;;7.20;4.50;;;;;;;;;;84228;275;3011011;-41
2023/07/03 06:31:38;;;;;;;7.10;4.60;;;;;;;;;;83478;271;3031207;-40
2023/07/03 06:34:12;;;;;;;7.20;4.50;;;;;;;;;;83504;275;3029158;-40
2023/07/03 06:36:52;;;;;;;6.60;4.60;;;;;;;;;;84238;271;3010939;-40
2023/07/03 06:39:27;;;;;;;7.40;4.30;;;;;;;;;;83473;273;3027625;-41
2023/07/03 06:42:04;;;;;;;6.30;4.50;;;;;;;;;;83522;271;3030670;-40
2023/07/03 06:44:42;;;;;;;6.60;4.30;;;;;;;;;;83513;271;3031297;-40
2023/07/03 06:47:16;;;;;;;6.90;4.30;;;;;;;;;;83528;271;3028030;-40
2023/07/03 06:49:52;;;;;;;6.70;4.60;;;;;;;;;;84262;271;3011306;-41
2023/07/03 06:52:28;;;;;;;7.30;4.30;;;;;;;;;;84190;277;3010952;-41
2023/07/03 06:55:05;;;;;;;6.20;4.40;;;;;;;;;;84239;275;3011041;-41
2023/07/03 06:57:42;;;;;;;7.00;4.50;;;;;;;;;;83470;271;3027176;-41
2023/07/03 07:00:21;;;;;;;6.90;4.50;;;;;;;;;;83502;271;3031628;-41
2023/07/03 07:02:56;;;;;;;7.00;4.80;;;;;;;;;;83461;275;3031947;-41
2023/07/03 07:05:34;;;;;;;6.70;4.60;;;;;;;;;;83510;275;3027866;-41
2023/07/03 07:08:16;;;;;;;7.40;4.60;;;;;;;;;;83489;267;3027720;-41
2023/07/03 07:10:51;;;;;;;7.10;4.60;;;;;;;;;;83502;275;3031029;-41
2023/07/03 07:13:28;;;;;;;7.30;4.60;;;;;;;;;;83488;264;3031653;-41
2023/07/03 07:16:05;;;;;;;6.90;4.30;;;;;;;;;;83503;271;3028624;-41
2023/07/03 07:18:43;;;;;;;6.60;4.10;;;;;;;;;;83509;275;3027257;-40
2023/07/03 07:21:18;;;;;;;6.80;4.20;;;;;;;;;;83474;275;3030626;-42
2023/07/03 07:23:56;;;;;;;6.60;4.30;;;;;;;;;;84256;271;3011176;-41
2023/07/03 07:26:38;;;;;;;7.10;4.40;;;;;;;;;;83482;275;3031528;-40
2023/07/03 07:29:13;;;;;;;7.30;4.60;;;;;;;;;;83489;276;3028958;-40
2023/07/03 07:31:51;;;;;;;7.60;4.80;;;;;;;;;;84234;275;3010937;-40
2023/07/03 07:34:26;;;;;;;8.20;5.10;;;;;;;;;;83497;275;3027606;-41
2023/07/03 07:37:02;;;;;;;8.30;4.80;;;;;;;;;;84251;275;3011222;-40
2023/07/03 07:39:44;;;;;;;7.80;5.20;;;;;;;;;;84297;268;3010927;-40
2023/07/03 07:42:18;;;;;;;;;;;;;;;;;;83540;275;3030953;-40
2023/07/03 07:44:53;;;;;;;8.90;5.50;;;;;;;;;;84809;268;3011222;-40
2023/07/03 07:47:28;;;;;;;8.80;6.10;;;;;;;;;;83514;275;3028109;-41
2023/07/03 07:50:04;;;;;;;7.50;5.50;;;;;;;;;;83510;271;3027532;-40
2023/07/03 07:52:40;;;;;;;8.30;5.40;;;;;;;;;;84257;268;3011333;-42
2023/07/03 07:55:16;;;;;;;9.00;5.60;;;;;;;;;;84226;275;3010900;-41
2023/07/03 07:57:55;;;;;;;8.40;5.10;;;;;;;;;;84240;275;3011364;-41
2023/07/03 08:00:40;;;;;;;9.30;5.30;;;;;;;;;;83494;275;3030657;-41
2023/07/03 08:03:15;;;;;;;7.20;4.70;;;;;;;;;;83470;268;3031711;-40
2023/07/03 08:06:02;;;;;;;7.20;4.90;;;;;;;;;;83486;275;3028706;-41
2023/07/03 08:08:37;;;;;;;7.60;4.30;;;;;;;;;;83417;273;3027658;-38
2023/07/03 08:11:16;;;;;;;8.30;4.80;;;;;;;;;;84237;272;3011470;-36
2023/07/03 08:13:52;;;;;;;7.90;4.70;;;;;;;;;;83469;275;3031892;-36
2023/07/03 08:16:26;;;;;;;7.80;4.40;;;;;;;;;;83487;275;3031807;-39
2023/07/03 08:19:03;;;;;;;7.60;4.60;;;;;;;;;;84236;264;3011042;-37
2023/07/03 08:21:38;;;;;;;8.20;4.70;;;;;;;;;;84246;275;3010914;-37
2023/07/03 08:24:14;;;;;;;9.30;4.40;;;;;;;;;;84242;272;3010989;-37
2023/07/03 08:26:54;;;;;;;8.20;4.30;;;;;;;;;;84242;275;3010925;-39
2023/07/03 08:29:28;;;;;;;9.50;4.30;;;;;;;;;;83487;275;3028112;-37
2023/07/03 08:32:06;;;;;;;8.50;4.50;;;;;;;;;;84230;275;3011276;-37
2023/07/03 08:34:44;;;;;;;7.60;4.30;;;;;;;;;;83489;275;3027771;-37
2023/07/03 08:37:38;;;;;;;7.80;4.50;;;;;;;;;;83452;277;3030556;-37
2023/07/03 08:40:21;;;;;;;7.60;4.30;;;;;;;;;;84250;275;3011008;-37
2023/07/03 08:42:58;;;;;;;7.90;4.10;;;;;;;;;;83485;272;3031370;-38
2023/07/03 08:45:38;;;;;;;7.80;4.50;;;;;;;;;;83451;271;3028023;-38
2023/07/03 08:48:16;;;;;;;7.60;4.50;;;;;;;;;;83493;275;3027417;-37
2023/07/03 08:50:59;;;;;;;7.20;4.60;;;;;;;;;;83463;275;3031185;-38
2023/07/03 08:53:40;;;;;;;7.20;4.20;;;;;;;;;;83487;268;3031092;-37
2023/07/03 08:56:19;;;;;;;8.20;4.30;;;;;;;;;;83473;275;3029194;-37
2023/07/03 08:59:03;;;;;;;7.40;4.40;;;;;;;;;;83487;275;3027544;-37
2023/07/03 09:01:49;;;;;;;8.10;4.40;;;;;;;;;;83509;275;3031208;-37
2023/07/03 09:04:46;;;;;;;7.60;4.30;;;;;;;;;;83486;275;3032330;-37
2023/07/03 09:07:27;;;;;;;8.50;4.40;;;;;;;;;;83463;275;3035793;-39
2023/07/03 09:10:10;;;;;;;8.80;4.60;;;;;;;;;;83517;276;3027336;-37
2023/07/03 09:12:53;;;;;;;8.60;4.60;;;;;;;;;;83497;268;3031443;-37
2023/07/03 09:15:36;;;;;;;8.10;4.80;;;;;;;;;;83496;279;3031111;-38
2023/07/03 09:18:17;;;;;;;9.90;4.50;;;;;;;;;;83484;271;3028406;-37
2023/07/03 09:20:54;;;;;;;7.80;4.50;;;;;;;;;;83472;275;3027380;-38
2023/07/03 09:23:38;;;;;;;9.50;4.80;;;;;;;;;;83472;275;3030394;-36
2023/07/03 09:26:19;;;;;;;7.50;4.70;;;;;;;;;;83497;275;3031738;-36
2023/07/03 09:28:58;;;;;;;8.20;5.30;;;;;;;;;;83488;275;3033721;-36
2023/07/03 09:31:34;;;;;;;8.90;4.80;;;;;;;;;;83457;273;3027365;-37
2023/07/03 09:34:10;;;;;;;8.30;4.80;;;;;;;;;;84243;276;3011293;-35
2023/07/03 09:36:45;;;;;;;8.30;5.10;;;;;;;;;;84226;271;3010816;-38
2023/07/03 09:39:30;;;;;;;10.30;5.20;;;;;;;;;;84257;271;3011035;-39
2023/07/03 09:42:11;;;;;;;8.50;5.20;;;;;;;;;;83521;275;3031123;-37
2023/07/03 09:44:48;;;;;;;8.40;4.70;;;;;;;;;;83502;275;3031772;-38
2023/07/03 09:47:28;;;;;;;8.50;5.10;;;;;;;;;;83482;275;3028043;-38
2023/07/03 09:50:11;;;;;;;7.70;4.80;;;;;;;;;;83472;275;3027870;-36
2023/07/03 09:52:56;;;;;;;8.00;4.40;;;;;;;;;;83508;275;3030261;-39
2023/07/03 09:55:45;;;;;;;7.80;5.20;;;;;;;;;;83464;275;3031226;-37
2023/07/03 09:58:20;;;;;;;7.80;5.00;;;;;;;;;;83494;275;3027829;-36
2023/07/03 10:01:00;;;;;;;8.70;4.90;;;;;;;;;;83473;275;3027906;-37
2023/07/03 10:03:37;;;;;;;8.40;5.00;;;;;;;;;;83490;271;3030208;-37
2023/07/03 10:06:18;;;;;;;7.30;4.80;;;;;;;;;;83492;275;3032049;-39
2023/07/03 10:09:04;;;;;;;7.70;4.80;;;;;;;;;;83463;275;3029673;-38
2023/07/03 10:11:48;;;;;;;8.60;5.00;;;;;;;;;;83464;271;3027527;-37
2023/07/03 10:14:33;;;;;;;9.00;5.30;;;;;;;;;;83478;279;3030495;-37
2023/07/03 10:17:12;;;;;;;9.30;5.30;;;;;;;;;;83468;271;3031356;-37
2023/07/03 10:19:57;;;;;;;7.60;4.90;;;;;;;;;;83486;275;3028565;-37
2023/07/03 10:22:41;;;;;;;8.40;5.00;;;;;;;;;;83531;275;3027543;-35
2023/07/03 10:25:18;;;;;;;;;;;;;;;;;;83506;275;3031605;-37
2023/07/03 10:27:59;;;;;;;7.90;5.00;;;;;;;;;;83503;277;3031950;-37
2023/07/03 10:30:37;;;;;;;7.50;4.70;;;;;;;;;;83484;275;3034413;-37
2023/07/03 10:33:21;;;;;;;9.40;5.30;;;;;;;;;;83482;275;3027769;-37
2023/07/03 10:36:11;;;;;;;9.50;4.70;;;;;;;;;;83505;268;3030722;-38
2023/07/03 10:38:56;;;;;;;10.00;5.10;;;;;;;;;;83453;274;3031372;-36
2023/07/03 10:41:39;;;;;;;8.80;5.30;;;;;;;;;;83491;275;3028610;-38
2023/07/03 10:44:19;;;;;;;9.30;5.40;;;;;;;;;;83482;275;3027814;-39
2023/07/03 10:47:03;;;;;;;10.20;5.50;;;;;;;;;;83486;275;3031109;-39
2023/07/03 10:49:44;;;;;;;9.40;5.00;;;;;;;;;;83469;275;3031315;-39
2023/07/03 10:52:29;;;;;;;9.20;5.40;;;;;;;;;;83495;275;3028413;-36
2023/07/03 10:55:18;;;;;;;8.80;5.00;;;;;;;;;;83463;275;3027184;-37
2023/07/03 10:58:06;;;;;;;9.40;5.60;;;;;;;;;;83483;275;3031339;-37
2023/07/03 11:00:51;;;;;;;9.00;5.40;;;;;;;;;;83462;272;3031202;-37
2023/07/03 11:03:38;;;;;;;9.10;5.10;;;;;;;;;;83476;275;3028001;-38
2023/07/03 11:06:25;;;;;;;8.20;5.10;;;;;;;;;;83496;275;3027386;-37
2023/07/03 11:09:08;;;;;;;8.80;5.20;;;;;;;;;;83486;275;3031963;-37
2023/07/03 11:11:54;;;;;;;8.70;5.10;;;;;;;;;;83474;275;3031036;-37
2023/07/03 11:14:41;;;;;;;8.60;5.00;;;;;;;;;;83485;271;3028294;-37
2023/07/03 11:17:29;;;;;;;9.30;5.30;;;;;;;;;;83499;271;3027567;-38
2023/07/03 11:20:15;;;;;;;8.50;5.30;;;;;;;;;;83452;275;3031054;-37
2023/07/03 11:23:00;;;;;;;9.50;5.20;;;;;;;;;;83476;271;3031923;-36
2023/07/03 11:25:48;;;;;;;9.10;5.50;;;;;;;;;;83506;271;3029158;-37
2023/07/03 11:28:34;;;;;;;9.00;5.00;;;;;;;;;;83501;271;3027738;-37
2023/07/03 11:31:10;;;;;;;7.40;4.70;;;;;;;;;;83492;271;3030590;-37
2023/07/03 11:33:47;;;;;;;8.00;5.00;;;;;;;;;;83489;268;3031783;-36
2023/07/03 11:36:42;;;;;;;9.80;5.50;;;;;;;;;;83506;275;3029173;-36
2023/07/03 11:39:36;;;;;;;8.80;5.00;;;;;;;;;;83482;268;3027034;-38
2023/07/03 11:42:26;;;;;;;9.20;5.40;;;;;;;;;;83523;275;3038517;-37
2023/07/03 11:45:09;;;;;;;9.40;5.20;;;;;;;;;;83480;275;3031930;-36
2023/07/03 11:47:45;;;;;;;8.10;4.90;;;;;;;;;;83471;275;3028616;-37
2023/07/03 11:50:36;;;;;;;7.60;5.00;;;;;;;;;;83474;281;3028591;-39
2023/07/03 11:53:11;;;;;;;8.70;5.30;;;;;;;;;;83520;271;3030654;-37
2023/07/03 11:55:47;;;;;;;6.80;4.60;;;;;;;;;;84245;276;3010885;-37
2023/07/03 11:58:29;;;;;;;7.90;5.10;;;;;;;;;;83470;275;3031089;-39
2023/07/03 12:01:31;;;;;;;7.90;5.10;;;;;;;;;;83464;275;3028773;-40
2023/07/03 12:04:09;;;;;;;8.00;5.10;;;;;;;;;;83524;268;3027536;-39
2023/07/03 12:06:51;;;;;;;8.30;5.00;;;;;;;;;;83497;268;3030264;-38
2023/07/03 12:09:32;;;;;;;8.90;5.20;;;;;;;;;;83487;268;3031091;-38
2023/07/03 12:12:24;;;;;;;8.40;5.00;;;;;;;;;;83481;276;3028556;-39
2023/07/03 12:15:12;;;;;;;8.80;5.40;;;;;;;;;;83479;276;3027101;-39
2023/07/03 12:17:47;;;;;;;7.70;5.00;;;;;;;;;;83471;272;3031166;-38
2023/07/03 12:20:24;;;;;;;7.70;5.20;;;;;;;;;;84248;272;3010956;-38
2023/07/03 12:23:00;;;;;;;7.90;5.20;;;;;;;;;;83516;275;3038372;-40
2023/07/03 12:25:35;;;;;;;7.60;5.10;;;;;;;;;;83495;275;3029588;-38
2023/07/03 12:28:17;;;;;;;8.10;5.20;;;;;;;;;;84195;275;3010997;-38
2023/07/03 12:30:50;;;;;;;;;;;;;;;;;;83524;275;3027186;-39
2023/07/03 12:33:24;;;;;;;7.70;4.60;;;;;;;;;;84803;272;3010955;-38
2023/07/03 12:36:01;;;;;;;7.30;4.70;;;;;;;;;;83490;271;3032684;-37
2023/07/03 12:38:38;;;;;;;8.50;5.10;;;;;;;;;;83473;275;3029691;-37
2023/07/03 12:41:13;;;;;;;9.20;5.50;;;;;;;;;;83485;275;3027348;-40
2023/07/03 12:43:50;;;;;;;9.00;5.20;;;;;;;;;;84270;268;3011192;-39
2023/07/03 12:46:45;;;;;;;8.60;5.10;;;;;;;;;;83518;275;3030997;-38
2023/07/03 12:49:22;;;;;;;8.20;5.50;;;;;;;;;;83477;276;3031682;-39
2023/07/03 12:51:58;;;;;;;7.30;4.80;;;;;;;;;;83462;268;3028424;-37
2023/07/03 12:54:37;;;;;;;8.50;5.00;;;;;;;;;;83529;275;3028124;-38
2023/07/03 12:57:13;;;;;;;8.10;5.10;;;;;;;;;;83504;277;3031217;-37
2023/07/03 12:59:52;;;;;;;8.30;5.00;;;;;;;;;;83454;277;3031319;-38
2023/07/03 13:02:32;;;;;;;9.30;5.90;;;;;;;;;;83499;268;3029226;-36
2023/07/03 13:05:14;;;;;;;8.10;5.40;;;;;;;;;;83519;275;3027040;-37
2023/07/03 13:07:52;;;;;;;7.80;5.00;;;;;;;;;;83546;272;3030446;-37
2023/07/03 13:10:27;;;;;;;9.30;5.50;;;;;;;;;;83531;277;3031938;-37
2023/07/03 13:13:11;;;;;;;9.00;5.20;;;;;;;;;;83483;276;3028320;-39
2023/07/03 13:15:47;;;;;;;8.20;5.30;;;;;;;;;;83490;275;3027422;-39
2023/07/03 13:18:24;;;;;;;8.60;5.20;;;;;;;;;;83514;275;3031249;-38
2023/07/03 13:21:03;;;;;;;8.00;5.30;;;;;;;;;;83481;275;3032353;-38
2023/07/03 13:23:42;;;;;;;8.80;5.00;;;;;;;;;;83494;277;3029640;-39
2023/07/03 13:26:26;;;;;;;8.20;5.10;;;;;;;;;;83508;271;3027651;-38
2023/07/03 13:29:04;;;;;;;9.80;5.50;;;;;;;;;;83513;276;3030726;-35
2023/07/03 13:31:45;;;;;;;8.20;5.40;;;;;;;;;;83513;275;3031734;-36
2023/07/03 13:34:28;;;;;;;9.10;5.70;;;;;;;;;;83499;268;3028554;-36
2023/07/03 13:37:09;;;;;;;8.20;5.40;;;;;;;;;;83483;272;3027443;-37
2023/07/03 13:39:44;;;;;;;9.10;5.80;;;;;;;;;;83497;273;3030860;-35
2023/07/03 13:42:36;;;;;;;8.00;5.20;;;;;;;;;;83478;275;3031878;-35
2023/07/03 13:45:14;;;;;;;8.50;5.60;;;;;;;;;;83496;277;3028344;-35
2023/07/03 13:47:49;;;;;;;8.00;5.30;;;;;;;;;;83522;275;3027367;-36
2023/07/03 13:50:25;;;;;;;8.50;5.70;;;;;;;;;;84254;275;3011316;-36
2023/07/03 13:53:00;;;;;;;8.70;5.60;;;;;;;;;;84222;277;3010948;-35
2023/07/03 13:55:37;;;;;;;8.20;5.40;;;;;;;;;;84217;275;3011335;-37
2023/07/03 13:58:12;;;;;;;7.70;5.20;;;;;;;;;;83490;268;3031459;-36
2023/07/03 14:00:48;;;;;;;8.30;5.50;;;;;;;;;;84227;276;3010942;-36
2023/07/03 14:03:27;;;;;;;8.40;5.30;;;;;;;;;;84235;275;3011684;-36
2023/07/03 14:06:02;;;;;;;9.40;5.40;;;;;;;;;;83510;275;3031135;-36
2023/07/03 14:08:51;;;;;;;7.90;5.10;;;;;;;;;;83484;275;3028768;-38
2023/07/03 14:11:27;;;;;;;8.50;5.40;;;;;;;;;;83500;275;3026991;-38
2023/07/03 14:14:05;;;;;;;8.20;5.50;;;;;;;;;;83491;271;3030266;-39
2023/07/03 14:16:46;;;;;;;8.00;5.10;;;;;;;;;;83500;275;3031226;-38
2023/07/03 14:19:30;;;;;;;7.80;5.60;;;;;;;;;;83518;271;3028247;-38
2023/07/03 14:22:06;;;;;;;8.70;5.70;;;;;;;;;;83480;275;3027581;-38
2023/07/03 14:24:43;;;;;;;8.70;5.40;;;;;;;;;;83494;275;3031232;-38
2023/07/03 14:27:18;;;;;;;8.50;5.40;;;;;;;;;;83489;271;3032900;-39
2023/07/03 14:29:54;;;;;;;7.60;5.60;;;;;;;;;;84259;271;3011176;-38
2023/07/03 14:32:30;;;;;;;8.90;5.50;;;;;;;;;;84232;275;3010866;-38
2023/07/03 14:35:26;;;;;;;8.40;5.60;;;;;;;;;;83481;275;3028074;-38
2023/07/03 14:38:02;;;;;;;9.40;5.80;;;;;;;;;;84250;275;3010918;-38
2023/07/03 14:40:37;;;;;;;7.90;5.50;;;;;;;;;;83493;275;3027753;-39
2023/07/03 14:43:13;;;;;;;9.00;5.80;;;;;;;;;;83492;275;3031205;-38
2023/07/03 14:45:49;;;;;;;8.90;5.60;;;;;;;;;;83497;275;3031470;-39
2023/07/03 14:48:25;;;;;;;8.90;5.50;;;;;;;;;;83502;275;3028760;-38
2023/07/03 14:51:00;;;;;;;8.20;5.80;;;;;;;;;;84225;280;3010934;-38
2023/07/03 14:53:37;;;;;;;8.80;5.70;;;;;;;;;;84203;275;3011117;-38
2023/07/03 14:56:12;;;;;;;8.40;5.40;;;;;;;;;;83483;275;3033339;-38
2023/07/03 14:58:48;;;;;;;9.10;5.70;;;;;;;;;;84231;268;3010941;-38
2023/07/03 15:01:27;;;;;;;8.40;5.60;;;;;;;;;;84245;275;3011005;-38
2023/07/03 15:04:02;;;;;;;8.80;6.30;;;;;;;;;;83487;275;3030211;-38
2023/07/03 15:06:39;;;;;;;8.60;5.90;;;;;;;;;;84260;264;3010982;-38
2023/07/03 15:09:14;;;;;;;8.90;5.60;;;;;;;;;;83484;275;3031225;-38
2023/07/03 15:11:52;;;;;;;8.90;5.80;;;;;;;;;;84236;271;3010980;-38
2023/07/03 15:14:29;;;;;;;7.90;5.80;;;;;;;;;;83480;275;3028096;-39
2023/07/03 15:17:09;;;;;;;7.60;5.50;;;;;;;;;;84259;275;3010986;-39
2023/07/03 15:19:47;;;;;;;8.00;5.10;;;;;;;;;;83477;275;3027139;-39
2023/07/03 15:22:22;;;;;;;7.70;5.40;;;;;;;;;;83514;275;3030168;-39
2023/07/03 15:24:58;;;;;;;7.50;5.60;;;;;;;;;;83496;275;3031493;-38
2023/07/03 15:27:33;;;;;;;9.20;5.80;;;;;;;;;;83502;268;3028220;-39
2023/07/03 15:30:12;;;;;;;7.50;5.70;;;;;;;;;;84220;271;3011145;-38
2023/07/03 15:32:54;;;;;;;8.20;5.90;;;;;;;;;;83511;275;3027533;-39
2023/07/03 15:35:30;;;;;;;8.60;6.00;;;;;;;;;;83476;268;3030873;-38
2023/07/03 15:38:08;;;;;;;8.30;5.80;;;;;;;;;;84254;275;3010962;-38